createdAt,value
2018-04-13T00:01:31.201Z,11.50
2018-04-13T00:03:58.793Z,11.40
2018-04-13T00:06:26.361Z,11.40
2018-04-13T00:08:53.913Z,11.20
2018-04-13T00:11:21.501Z,11.10
2018-04-13T00:13:49.825Z,11.10
2018-04-13T00:16:17.421Z,11.00
2018-04-13T00:18:45.006Z,11.00
2018-04-13T00:21:13.369Z,11.30
2018-04-13T00:23:40.941Z,11.30
2018-04-13T00:26:09.293Z,11.70
2018-04-13T00:28:36.852Z,11.70
2018-04-13T00:31:04.517Z,11.60
2018-04-13T00:33:32.121Z,11.20
2018-04-13T00:35:59.704Z,11.00
2018-04-13T00:38:27.345Z,10.90
2018-04-13T00:40:54.949Z,10.80
2018-04-13T00:43:24.031Z,10.90
2018-04-13T00:45:51.601Z,10.80
2018-04-13T00:48:19.238Z,10.80
2018-04-13T00:50:46.801Z,10.90
2018-04-13T00:53:26.618Z,10.80
2018-04-13T00:55:54.177Z,10.70
2018-04-13T00:58:21.790Z,10.70
2018-04-13T01:00:49.494Z,11.00
2018-04-13T01:03:17.052Z,11.20
2018-04-13T01:05:44.641Z,10.80
2018-04-13T01:08:12.236Z,10.60
2018-04-13T01:10:40.576Z,10.80
2018-04-13T01:13:08.194Z,10.80
2018-04-13T01:15:35.781Z,10.70
2018-04-13T01:18:03.337Z,10.50
2018-04-13T01:20:30.929Z,10.40
2018-04-13T01:23:00.142Z,10.40
2018-04-13T01:25:27.838Z,10.40
2018-04-13T01:27:55.411Z,10.40
2018-04-13T01:30:22.981Z,10.30
2018-04-13T01:32:50.582Z,10.30
2018-04-13T01:35:19.052Z,10.50
2018-04-13T01:37:48.125Z,10.50
2018-04-13T01:40:15.733Z,10.50
2018-04-13T01:42:44.157Z,10.30
2018-04-13T01:45:11.753Z,10.30
2018-04-13T01:47:40.089Z,10.40
2018-04-13T01:50:07.684Z,10.40
2018-04-13T01:52:36.026Z,10.40
2018-04-13T01:55:03.621Z,10.40
2018-04-13T01:57:31.177Z,10.30
2018-04-13T01:59:58.744Z,10.20
2018-04-13T02:02:27.092Z,10.10
2018-04-13T02:04:54.641Z,10.10
2018-04-13T02:07:22.392Z,10.10
2018-04-13T02:09:49.940Z,10.00
2018-04-13T02:12:17.532Z,10.10
2018-04-13T02:14:45.098Z,10.20
2018-04-13T02:17:12.677Z,9.90
2018-04-13T02:19:41.001Z,9.90
2018-04-13T02:22:08.589Z,9.90
2018-04-13T02:24:36.175Z,9.90
2018-04-13T02:27:04.633Z,10.00
2018-04-13T02:29:32.191Z,10.00
2018-04-13T02:32:01.285Z,10.10
2018-04-13T02:34:28.994Z,10.10
2018-04-13T02:36:56.443Z,10.00
2018-04-13T02:39:24.113Z,10.10
2018-04-13T02:41:51.673Z,10.10
2018-04-13T02:44:19.321Z,10.00
2018-04-13T02:46:46.877Z,9.90
2018-04-13T02:49:14.477Z,9.90
2018-04-13T02:51:42.036Z,9.80
2018-04-13T02:54:09.616Z,9.80
2018-04-13T02:56:37.196Z,9.90
2018-04-13T02:59:05.514Z,9.90
2018-04-13T03:01:33.160Z,9.90
2018-04-13T03:04:00.714Z,10.10
2018-04-13T03:06:28.344Z,10.10
2018-04-13T03:08:56.681Z,10.10
2018-04-13T03:11:24.287Z,10.10
2018-04-13T03:13:52.693Z,9.90
2018-04-13T03:16:20.294Z,9.90
2018-04-13T03:18:47.879Z,9.80
2018-04-13T03:21:16.231Z,9.90
2018-04-13T03:23:43.812Z,9.90
2018-04-13T03:26:12.138Z,10.20
2018-04-13T03:28:39.737Z,10.20
2018-04-13T03:31:08.088Z,9.80
2018-04-13T03:33:35.781Z,9.80
2018-04-13T03:36:04.109Z,9.50
2018-04-13T03:38:31.693Z,9.50
2018-04-13T03:40:59.253Z,9.60
2018-04-13T03:43:26.821Z,9.60
2018-04-13T03:45:54.401Z,9.60
2018-04-13T03:48:22.717Z,9.60
2018-04-13T03:50:50.292Z,9.60
2018-04-13T03:53:17.849Z,9.70
2018-04-13T03:55:45.440Z,10.00
2018-04-13T03:58:13.768Z,9.70
2018-04-13T04:00:41.468Z,9.70
2018-04-13T04:03:09.030Z,9.60
2018-04-13T04:05:36.611Z,9.50
2018-04-13T04:08:05.010Z,9.50
2018-04-13T04:10:32.676Z,9.50
2018-04-13T04:13:00.334Z,9.50
2018-04-13T04:15:27.948Z,9.50
2018-04-13T04:17:55.612Z,9.60
2018-04-13T04:20:35.201Z,9.60
2018-04-13T04:23:14.761Z,9.60
2018-04-13T04:28:43.710Z,9.50
2018-04-13T04:31:12.066Z,9.50
2018-04-13T04:33:39.681Z,9.40
2018-04-13T04:36:07.242Z,9.50
2018-04-13T04:38:34.841Z,9.50
2018-04-13T04:41:02.408Z,9.50
2018-04-13T04:43:29.985Z,9.60
2018-04-13T04:45:58.331Z,9.80
2018-04-13T04:48:25.916Z,9.80
2018-04-13T04:50:54.261Z,9.60
2018-04-13T04:53:21.973Z,9.50
2018-04-13T04:55:49.525Z,9.50
2018-04-13T04:58:17.925Z,9.50
2018-04-13T05:00:45.588Z,9.50
2018-04-13T05:03:13.147Z,9.50
2018-04-13T05:05:40.733Z,9.50
2018-04-13T05:08:08.289Z,9.60
2018-04-13T05:10:35.874Z,9.70
2018-04-13T05:13:03.465Z,9.60
2018-04-13T05:15:31.048Z,9.60
2018-04-13T05:17:58.604Z,9.60
2018-04-13T05:20:26.161Z,9.50
2018-04-13T05:22:53.749Z,9.60
2018-04-13T05:25:21.349Z,9.60
2018-04-13T05:27:49.708Z,9.70
2018-04-13T05:30:17.348Z,9.70
2018-04-13T05:32:44.941Z,9.70
2018-04-13T05:35:13.330Z,9.70
2018-04-13T05:37:40.869Z,9.70
2018-04-13T05:40:09.196Z,9.70
2018-04-13T05:42:36.802Z,9.70
2018-04-13T05:45:04.370Z,9.80
2018-04-13T05:47:32.733Z,9.80
2018-04-13T05:50:00.325Z,9.80
2018-04-13T05:52:27.942Z,9.80
2018-04-13T05:54:55.543Z,9.80
2018-04-13T05:57:23.157Z,9.90
2018-04-13T05:59:50.753Z,9.90
2018-04-13T06:02:19.101Z,10.00
2018-04-13T06:04:46.706Z,10.00
2018-04-13T06:07:14.275Z,10.10
2018-04-13T06:09:42.051Z,10.10
2018-04-13T06:12:09.626Z,10.10
2018-04-13T06:14:37.351Z,10.40
2018-04-13T06:17:04.927Z,10.70
2018-04-13T06:19:32.523Z,10.60
2018-04-13T06:22:00.106Z,10.60
2018-04-13T06:24:28.617Z,10.60
2018-04-13T06:26:56.951Z,10.60
2018-04-13T06:29:25.292Z,10.70
2018-04-13T06:31:52.901Z,10.70
2018-04-13T06:34:21.256Z,10.50
2018-04-13T06:36:48.814Z,10.50
2018-04-13T06:39:16.409Z,10.60
2018-04-13T06:41:44.092Z,10.90
2018-04-13T06:44:11.653Z,10.90
2018-04-13T06:46:39.268Z,10.90
2018-04-13T06:49:07.593Z,11.30
2018-04-13T06:51:35.180Z,11.20
2018-04-13T06:54:02.850Z,11.30
2018-04-13T06:56:31.258Z,11.60
2018-04-13T06:58:59.096Z,11.60
2018-04-13T07:01:27.528Z,11.80
2018-04-13T07:03:55.189Z,11.80
2018-04-13T07:06:22.769Z,11.70
2018-04-13T07:08:50.441Z,11.60
2018-04-13T07:11:18.006Z,11.80
2018-04-13T07:13:45.701Z,11.80
2018-04-13T07:16:13.443Z,11.90
2018-04-13T07:18:41.813Z,11.80
2018-04-13T07:21:09.380Z,11.80
2018-04-13T07:23:37.770Z,12.20
2018-04-13T07:26:06.100Z,12.40
2018-04-13T07:28:33.656Z,12.40
2018-04-13T07:31:01.324Z,12.30
2018-04-13T07:33:28.882Z,12.10
2018-04-13T07:35:56.465Z,12.20
2018-04-13T07:38:24.810Z,12.60
2018-04-13T07:40:52.590Z,12.60
2018-04-13T07:43:20.736Z,13.20
2018-04-13T07:45:48.345Z,13.20
2018-04-13T07:48:16.717Z,13.30
2018-04-13T07:50:44.403Z,13.30
2018-04-13T07:53:11.874Z,13.40
2018-04-13T07:55:39.539Z,13.10
2018-04-13T07:58:07.103Z,12.80
2018-04-13T08:00:34.768Z,12.70
2018-04-13T08:03:02.276Z,12.70
2018-04-13T08:05:30.638Z,12.80
2018-04-13T08:07:59.005Z,12.80
2018-04-13T08:10:26.608Z,12.80
2018-04-13T08:12:54.483Z,12.90
2018-04-13T08:15:21.921Z,13.10
2018-04-13T08:17:50.258Z,13.30
2018-04-13T08:20:17.822Z,13.20
2018-04-13T08:22:45.645Z,13.70
2018-04-13T08:25:13.250Z,13.90
2018-04-13T08:27:40.858Z,13.80
2018-04-13T08:30:08.451Z,13.80
2018-04-13T08:32:36.057Z,14.00
2018-04-13T08:35:04.390Z,13.40
2018-04-13T08:37:32.077Z,13.40
2018-04-13T08:40:00.676Z,13.50
2018-04-13T08:42:29.127Z,13.70
2018-04-13T08:44:56.717Z,13.70
2018-04-13T08:47:25.077Z,13.60
2018-04-13T08:49:53.419Z,13.60
2018-04-13T08:52:21.029Z,13.60
2018-04-13T08:54:49.441Z,13.60
2018-04-13T08:57:17.094Z,13.60
2018-04-13T08:59:44.684Z,13.70
2018-04-13T09:02:12.325Z,13.70
2018-04-13T09:04:39.955Z,13.70
2018-04-13T09:07:08.284Z,13.60
2018-04-13T09:09:35.881Z,13.60
2018-04-13T09:12:03.476Z,13.60
2018-04-13T09:14:40.033Z,13.70
2018-04-13T09:17:07.616Z,13.70
2018-04-13T09:19:35.264Z,13.90
2018-04-13T09:22:02.939Z,13.80
2018-04-13T09:24:30.527Z,13.90
2018-04-13T09:26:58.086Z,13.90
2018-04-13T09:29:25.685Z,13.90
2018-04-13T09:31:53.385Z,14.10
2018-04-13T09:34:20.964Z,14.20
2018-04-13T09:36:48.553Z,14.00
2018-04-13T09:39:16.135Z,14.00
2018-04-13T09:41:43.800Z,14.10
2018-04-13T09:44:11.373Z,14.10
2018-04-13T09:46:38.965Z,14.10
2018-04-13T09:49:07.289Z,14.10
2018-04-13T09:51:34.875Z,14.10
2018-04-13T09:54:02.445Z,14.10
2018-04-13T09:56:30.925Z,14.00
2018-04-13T09:58:58.500Z,14.00
2018-04-13T10:01:26.838Z,13.90
2018-04-13T10:04:05.078Z,13.90
2018-04-13T10:06:33.430Z,13.30
2018-04-13T10:09:00.992Z,13.30
2018-04-13T10:11:28.552Z,12.60
2018-04-13T10:13:56.134Z,12.00
2018-04-13T10:16:23.762Z,11.60
2018-04-13T10:18:51.365Z,11.40
2018-04-13T10:21:19.753Z,11.80
2018-04-13T10:23:48.149Z,11.60
2018-04-13T10:26:20.576Z,11.60
2018-04-13T10:28:48.244Z,11.80
2018-04-13T10:31:15.960Z,11.80
2018-04-13T10:33:43.533Z,11.80
2018-04-13T10:36:11.117Z,11.70
2018-04-13T10:38:39.597Z,11.70
2018-04-13T10:41:07.270Z,11.70
2018-04-13T10:43:35.608Z,11.70
2018-04-13T10:46:03.190Z,11.70
2018-04-13T10:48:30.753Z,11.30
2018-04-13T10:50:58.415Z,11.30
2018-04-13T10:53:25.973Z,11.70
2018-04-13T10:55:53.576Z,11.20
2018-04-13T10:58:21.134Z,11.10
2018-04-13T11:00:48.740Z,11.30
2018-04-13T11:03:17.195Z,11.30
2018-04-13T11:05:44.768Z,11.30
2018-04-13T11:08:12.366Z,11.40
2018-04-13T11:10:40.721Z,11.30
2018-04-13T11:13:09.089Z,11.20
2018-04-13T11:15:36.714Z,11.10
2018-04-13T11:18:04.453Z,11.20
2018-04-13T11:20:32.017Z,11.30
2018-04-13T11:22:59.597Z,11.30
2018-04-13T11:25:27.168Z,11.10
2018-04-13T11:27:54.760Z,10.90
2018-04-13T11:30:23.106Z,10.90
2018-04-13T11:32:50.661Z,10.80
2018-04-13T11:35:18.247Z,10.80
2018-04-13T11:37:46.045Z,10.70
2018-04-13T11:40:13.777Z,10.70
2018-04-13T11:42:41.408Z,10.60
2018-04-13T11:45:09.001Z,10.70
2018-04-13T11:47:37.333Z,10.70
2018-04-13T11:50:04.918Z,10.70
2018-04-13T11:52:32.489Z,10.80
2018-04-13T11:55:01.658Z,10.90
2018-04-13T11:57:29.233Z,10.90
2018-04-13T11:59:58.323Z,10.70
2018-04-13T12:02:26.046Z,10.70
2018-04-13T12:04:53.564Z,10.70
2018-04-13T12:07:22.093Z,10.50
2018-04-13T12:09:49.673Z,10.50
2018-04-13T12:12:17.408Z,10.60
2018-04-13T12:14:44.965Z,10.60
2018-04-13T12:17:12.543Z,10.60
2018-04-13T12:19:40.100Z,10.50
2018-04-13T12:22:07.711Z,10.40
2018-04-13T12:24:36.024Z,10.40
2018-04-13T12:27:03.608Z,10.40
2018-04-13T12:29:32.676Z,10.40
2018-04-13T12:32:00.263Z,10.40
2018-04-13T12:34:27.817Z,10.50
2018-04-13T12:36:55.444Z,10.40
2018-04-13T12:39:23.002Z,10.40
2018-04-13T12:41:50.561Z,10.40
2018-04-13T12:44:18.279Z,10.40
2018-04-13T12:46:46.009Z,10.40
2018-04-13T12:49:13.597Z,10.40
2018-04-13T12:51:41.166Z,10.50
2018-04-13T12:54:09.564Z,10.50
2018-04-13T12:56:37.166Z,10.50
2018-04-13T12:59:04.745Z,10.60
2018-04-13T13:01:33.838Z,10.60
2018-04-13T13:04:01.421Z,10.60
2018-04-13T13:06:29.765Z,10.50
2018-04-13T13:08:57.387Z,10.50
2018-04-13T13:11:25.109Z,10.50
2018-04-13T13:13:53.424Z,10.50
2018-04-13T13:16:21.035Z,10.50
2018-04-13T13:18:48.589Z,10.60
2018-04-13T13:21:16.176Z,10.60
2018-04-13T13:23:44.586Z,10.50
2018-04-13T13:26:12.197Z,10.50
2018-04-13T13:28:40.533Z,10.50
2018-04-13T13:31:08.086Z,10.50
2018-04-13T13:33:35.674Z,10.50
2018-04-13T13:36:03.513Z,10.60
2018-04-13T13:38:31.075Z,10.60
2018-04-13T13:40:58.725Z,10.60
2018-04-13T13:43:26.429Z,10.80
2018-04-13T13:45:55.512Z,11.10
2018-04-13T13:48:23.104Z,11.10
2018-04-13T13:50:51.583Z,10.80
2018-04-13T13:53:19.950Z,10.70
2018-04-13T13:55:48.282Z,10.60
2018-04-13T13:58:15.985Z,10.60
2018-04-13T14:00:43.793Z,10.60
2018-04-13T14:03:11.356Z,10.50
2018-04-13T14:05:38.961Z,10.50
2018-04-13T14:08:07.418Z,10.50
2018-04-13T14:10:35.033Z,10.40
2018-04-13T14:13:02.642Z,10.50
2018-04-13T14:15:30.207Z,10.40
2018-04-13T14:17:57.981Z,10.50
2018-04-13T14:20:25.561Z,10.50
2018-04-13T14:22:53.909Z,10.50
2018-04-13T14:25:21.528Z,10.40
2018-04-13T14:27:49.097Z,10.50
2018-04-13T14:30:16.745Z,10.40
2018-04-13T14:32:44.288Z,10.40
2018-04-13T14:35:11.913Z,10.40
2018-04-13T14:37:39.731Z,10.40
2018-04-13T14:40:07.321Z,10.40
2018-04-13T14:42:34.885Z,10.30
2018-04-13T14:45:02.590Z,10.40
2018-04-13T14:47:30.201Z,10.40
2018-04-13T14:49:57.769Z,10.40
2018-04-13T14:52:25.366Z,10.50
2018-04-13T14:54:52.980Z,10.40
2018-04-13T14:57:20.573Z,10.30
2018-04-13T14:59:48.901Z,10.30
2018-04-13T15:02:16.926Z,10.30
2018-04-13T15:04:44.521Z,10.50
2018-04-13T15:07:12.241Z,10.60
2018-04-13T15:09:40.781Z,11.00
2018-04-13T15:12:08.647Z,11.00
2018-04-13T15:14:36.790Z,11.30
2018-04-13T15:17:05.580Z,11.50
2018-04-13T15:19:33.630Z,11.50
2018-04-13T15:22:01.757Z,11.60
2018-04-13T15:24:30.240Z,11.70
2018-04-13T15:26:58.269Z,11.70
2018-04-13T15:29:26.158Z,11.60
2018-04-13T15:31:53.902Z,11.50
2018-04-13T15:34:21.523Z,11.40
2018-04-13T15:36:49.274Z,11.40
2018-04-13T15:39:17.892Z,11.40
2018-04-13T15:41:45.481Z,11.40
2018-04-13T15:44:13.041Z,11.60
2018-04-13T15:46:40.789Z,11.70
2018-04-13T15:49:08.354Z,11.50
2018-04-13T15:51:36.060Z,11.40
2018-04-13T15:54:04.408Z,11.40
2018-04-13T15:56:32.121Z,11.40
2018-04-13T15:58:59.685Z,11.50
2018-04-13T16:01:27.305Z,11.40
2018-04-13T16:03:55.034Z,11.50
2018-04-13T16:06:22.601Z,11.50
2018-04-13T16:08:50.193Z,11.50
2018-04-13T16:11:18.646Z,11.50
2018-04-13T16:13:46.310Z,11.50
2018-04-13T16:16:13.890Z,11.50
2018-04-13T16:18:42.241Z,11.40
2018-04-13T16:21:09.903Z,11.40
2018-04-13T16:23:37.493Z,11.50
2018-04-13T16:26:05.909Z,11.80
2018-04-13T16:28:33.522Z,11.80
2018-04-13T16:31:01.858Z,11.80
2018-04-13T16:33:29.524Z,11.80
2018-04-13T16:35:57.225Z,11.80
2018-04-13T16:38:25.591Z,12.40
2018-04-13T16:40:53.170Z,12.30
2018-04-13T16:43:21.497Z,12.30
2018-04-13T16:45:49.073Z,12.30
2018-04-13T16:48:16.721Z,12.30
2018-04-13T16:50:44.319Z,12.40
2018-04-13T16:53:12.658Z,12.30
2018-04-13T16:55:40.270Z,12.30
2018-04-13T16:58:08.610Z,12.20
2018-04-13T17:00:36.184Z,12.20
2018-04-13T17:03:04.533Z,12.20
2018-04-13T17:05:32.118Z,12.20
2018-04-13T17:07:59.705Z,12.00
2018-04-13T17:10:27.281Z,12.00
2018-04-13T17:12:54.875Z,11.70
2018-04-13T17:15:22.481Z,11.60
2018-04-13T17:17:50.086Z,11.50
2018-04-13T17:20:17.658Z,11.50
2018-04-13T17:22:45.264Z,11.50
2018-04-13T17:25:12.827Z,11.50
2018-04-13T17:27:40.410Z,11.40
2018-04-13T17:30:08.113Z,11.40
2018-04-13T17:32:36.454Z,11.30
2018-04-13T17:35:04.061Z,11.30
2018-04-13T17:37:32.597Z,11.40
2018-04-13T17:40:00.274Z,11.40
2018-04-13T17:42:28.628Z,11.50
2018-04-13T17:44:56.300Z,11.50
2018-04-13T17:47:24.021Z,11.50
2018-04-13T17:49:51.753Z,11.30
2018-04-13T17:52:20.120Z,11.10
2018-04-13T17:54:48.649Z,10.90
2018-04-13T17:57:16.209Z,10.90
2018-04-13T17:59:43.770Z,10.90
2018-04-13T18:02:11.380Z,11.20
2018-04-13T18:04:39.037Z,11.40
2018-04-13T18:07:06.642Z,11.40
2018-04-13T18:09:34.330Z,11.30
2018-04-13T18:12:01.981Z,11.30
2018-04-13T18:14:29.626Z,11.20
2018-04-13T18:16:57.188Z,11.20
2018-04-13T18:19:24.800Z,11.20
2018-04-13T18:21:52.430Z,11.20
2018-04-13T18:24:20.014Z,11.20
2018-04-13T18:26:48.478Z,11.20
2018-04-13T18:29:16.050Z,11.20
2018-04-13T18:31:43.780Z,11.20
2018-04-13T18:34:11.356Z,11.10
2018-04-13T18:36:38.961Z,11.10
2018-04-13T18:39:07.301Z,11.00
2018-04-13T18:41:35.058Z,11.00
2018-04-13T18:44:02.661Z,11.00
2018-04-13T18:46:30.993Z,11.00
2018-04-13T18:48:58.615Z,11.00
2018-04-13T18:51:26.258Z,11.00
2018-04-13T18:53:54.593Z,10.80
2018-04-13T18:56:22.187Z,10.80
2018-04-13T18:58:50.557Z,10.90
2018-04-13T19:01:18.874Z,10.80
2018-04-13T19:03:46.482Z,10.80
2018-04-13T19:06:14.063Z,10.80
2018-04-13T19:08:42.543Z,10.80
2018-04-13T19:11:10.913Z,10.80
2018-04-13T19:13:39.353Z,10.80
2018-04-13T19:16:06.930Z,10.80
2018-04-13T19:18:34.763Z,10.90
2018-04-13T19:21:02.325Z,10.90
2018-04-13T19:23:29.918Z,10.80
2018-04-13T19:25:58.249Z,10.80
2018-04-13T19:28:25.833Z,10.80
2018-04-13T19:30:53.401Z,10.90
2018-04-13T19:33:21.791Z,10.90
2018-04-13T19:35:49.388Z,10.90
2018-04-13T19:38:16.997Z,10.90
2018-04-13T19:40:44.557Z,10.90
2018-04-13T19:43:12.142Z,10.80
2018-04-13T19:45:40.527Z,10.80
2018-04-13T19:48:08.919Z,10.80
2018-04-13T19:50:36.601Z,10.80
2018-04-13T19:53:04.177Z,10.80
2018-04-13T19:55:31.965Z,10.70
2018-04-13T19:57:59.638Z,10.70
2018-04-13T20:00:28.042Z,10.70
2018-04-13T20:02:55.626Z,10.70
2018-04-13T20:05:23.261Z,10.70
2018-04-13T20:07:50.824Z,10.60
2018-04-13T20:10:18.440Z,10.60
2018-04-13T20:12:46.834Z,10.20
2018-04-13T20:15:24.938Z,10.00
2018-04-13T20:17:53.255Z,9.90
2018-04-13T20:20:20.834Z,9.90
2018-04-13T20:22:48.519Z,9.80
2018-04-13T20:25:16.169Z,9.70
2018-04-13T20:27:43.768Z,9.70
2018-04-13T20:30:11.330Z,9.60
2018-04-13T20:32:38.954Z,9.50
2018-04-13T20:35:06.541Z,9.50
2018-04-13T20:37:34.112Z,9.50
2018-04-13T20:40:02.534Z,9.50
2018-04-13T20:42:30.126Z,9.50
2018-04-13T20:44:58.461Z,9.50
2018-04-13T20:47:26.181Z,9.50
2018-04-13T20:49:53.907Z,9.40
2018-04-13T20:52:21.513Z,9.40
2018-04-13T20:54:49.094Z,9.50
2018-04-13T20:57:16.685Z,9.40
2018-04-13T20:59:45.110Z,9.10
2018-04-13T21:02:12.703Z,9.10
2018-04-13T21:04:40.501Z,9.10
2018-04-13T21:07:08.150Z,9.10
2018-04-13T21:09:37.014Z,9.20
2018-04-13T21:12:05.756Z,9.40
2018-04-13T21:14:33.419Z,9.30
2018-04-13T21:17:01.361Z,9.40
2018-04-13T21:19:29.158Z,9.40
2018-04-13T21:21:56.747Z,9.40
2018-04-13T21:24:24.309Z,9.20
2018-04-13T21:26:53.554Z,9.10
2018-04-13T21:29:21.111Z,9.10
2018-04-13T21:31:48.866Z,9.00
2018-04-13T21:34:17.213Z,9.00
2018-04-13T21:36:44.813Z,9.00
2018-04-13T21:39:12.416Z,9.30
2018-04-13T21:41:40.193Z,9.10
2018-04-13T21:44:07.787Z,8.90
2018-04-13T21:46:36.181Z,8.80
2018-04-13T21:49:03.777Z,8.70
2018-04-13T21:51:31.357Z,8.90
2018-04-13T21:53:58.995Z,9.00
2018-04-13T21:56:26.597Z,9.00
2018-04-13T21:58:54.968Z,8.90
2018-04-13T22:01:23.305Z,8.70
2018-04-13T22:03:50.914Z,8.70
2018-04-13T22:06:19.260Z,8.60
2018-04-13T22:08:46.857Z,8.60
2018-04-13T22:11:14.589Z,8.70
2018-04-13T22:13:46.431Z,8.90
2018-04-13T22:16:14.006Z,8.90
2018-04-13T22:18:41.621Z,8.80
2018-04-13T22:21:09.421Z,8.60
2018-04-13T22:23:37.241Z,8.60
2018-04-13T22:26:04.890Z,8.40
2018-04-13T22:28:32.828Z,8.40
2018-04-13T22:31:00.422Z,8.40
2018-04-13T22:33:28.178Z,8.40
2018-04-13T22:35:55.829Z,8.30
2018-04-13T22:38:23.722Z,8.30
2018-04-13T22:40:51.320Z,8.30
2018-04-13T22:43:18.901Z,8.30
2018-04-13T22:45:47.242Z,8.20
2018-04-13T22:48:14.929Z,8.20
2018-04-13T22:50:43.257Z,8.20
2018-04-13T22:53:10.851Z,8.20
2018-04-13T22:55:38.430Z,8.10
2018-04-13T22:58:06.777Z,8.10
2018-04-13T23:00:34.460Z,8.10
2018-04-13T23:03:02.106Z,8.10
2018-04-13T23:05:29.717Z,8.10
2018-04-13T23:07:57.281Z,8.20
2018-04-13T23:10:24.956Z,8.10
2018-04-13T23:12:52.535Z,8.00
2018-04-13T23:15:20.129Z,8.00
2018-04-13T23:17:48.462Z,8.00
2018-04-13T23:20:16.070Z,7.90
2018-04-13T23:22:44.400Z,7.90
2018-04-13T23:25:12.140Z,7.90
2018-04-13T23:27:39.708Z,7.90
2018-04-13T23:30:07.313Z,7.80
2018-04-13T23:32:35.645Z,7.80
2018-04-13T23:35:03.244Z,7.80
2018-04-13T23:37:30.846Z,7.80
2018-04-13T23:39:58.413Z,7.80
2018-04-13T23:42:26.020Z,7.80
2018-04-13T23:44:53.583Z,7.80
2018-04-13T23:47:22.161Z,7.70
2018-04-13T23:49:49.725Z,7.70
2018-04-13T23:52:18.100Z,7.70
2018-04-13T23:54:45.669Z,7.70
2018-04-13T23:57:14.065Z,7.60
2018-04-13T23:59:41.634Z,7.50
